createdAt,value
2022-09-12T00:01:21.037Z,130.75
2022-09-12T00:03:48.111Z,121.72
2022-09-12T00:06:23.334Z,96.13
2022-09-12T00:08:51.793Z,95.47
2022-09-12T00:11:18.647Z,140.82
2022-09-12T00:13:45.462Z,111.55
2022-09-12T00:16:23.074Z,112.40
2022-09-12T00:18:50.406Z,139.77
2022-09-12T00:21:18.743Z,115.82
2022-09-12T00:23:46.485Z,133.20
2022-09-12T00:26:13.513Z,124.80
2022-09-12T00:28:41.800Z,123.30
2022-09-12T00:31:15.536Z,119.50
2022-09-12T00:33:43.426Z,185.30
2022-09-12T00:36:14.836Z,133.43
2022-09-12T00:38:43.021Z,114.05
2022-09-12T00:41:26.666Z,102.43
2022-09-12T00:43:58.298Z,133.00
2022-09-12T00:46:52.414Z,136.73
2022-09-12T00:49:26.874Z,108.75
2022-09-12T00:51:57.577Z,134.43
2022-09-12T00:54:30.193Z,131.68
2022-09-12T00:57:04.604Z,145.93
2022-09-12T00:59:42.971Z,187.65
2022-09-12T01:02:10.069Z,152.20
2022-09-12T01:04:39.010Z,149.52
2022-09-12T01:07:07.412Z,205.10
2022-09-12T01:09:35.218Z,174.68
2022-09-12T01:12:02.909Z,185.15
2022-09-12T01:14:30.669Z,129.35
2022-09-12T01:16:57.801Z,175.15
2022-09-12T01:20:07.764Z,108.20
2022-09-12T01:23:11.049Z,126.32
2022-09-12T01:26:57.497Z,143.15
2022-09-12T01:30:05.854Z,211.02
2022-09-12T01:32:41.908Z,172.50
2022-09-12T01:35:28.111Z,118.72
2022-09-12T01:38:18.408Z,173.55
2022-09-12T01:40:53.154Z,175.02
2022-09-12T01:43:32.157Z,194.88
2022-09-12T01:46:11.793Z,207.32
2022-09-12T01:49:23.647Z,143.70
2022-09-12T01:52:15.225Z,147.30
2022-09-12T01:54:50.850Z,124.35
2022-09-12T01:57:38.198Z,153.18
2022-09-12T02:00:11.421Z,88.70
2022-09-12T02:03:03.053Z,150.70
2022-09-12T02:05:36.666Z,149.38
2022-09-12T02:08:14.322Z,98.90
2022-09-12T02:10:56.497Z,137.98
2022-09-12T02:13:48.158Z,120.32
2022-09-12T02:16:22.484Z,104.90
2022-09-12T02:19:00.424Z,134.90
2022-09-12T02:21:28.593Z,109.78
2022-09-12T02:24:02.323Z,96.28
2022-09-12T02:26:43.233Z,90.43
2022-09-12T02:29:09.881Z,129.27
2022-09-12T02:31:49.517Z,99.10
2022-09-12T02:35:00.878Z,105.35
2022-09-12T02:37:43.809Z,100.47
2022-09-12T02:40:10.737Z,110.18
2022-09-12T02:42:38.017Z,99.50
2022-09-12T02:45:05.551Z,104.80
2022-09-12T02:47:50.829Z,101.13
2022-09-12T02:50:17.857Z,118.18
2022-09-12T02:52:45.353Z,108.32
2022-09-12T02:55:13.744Z,153.13
2022-09-12T02:57:40.517Z,190.02
2022-09-12T03:00:09.016Z,100.18
2022-09-12T03:03:19.319Z,90.47
2022-09-12T03:05:51.721Z,126.63
2022-09-12T03:08:35.026Z,97.78
2022-09-12T03:11:16.820Z,113.85
2022-09-12T03:14:31.695Z,102.78
2022-09-12T03:17:30.141Z,116.45
2022-09-12T03:20:19.413Z,100.30
2022-09-12T03:22:57.048Z,96.65
2022-09-12T03:25:40.685Z,112.05
2022-09-12T03:28:15.452Z,104.32
2022-09-12T03:30:46.580Z,79.30
2022-09-12T03:33:22.020Z,113.60
2022-09-12T03:35:49.638Z,81.18
2022-09-12T03:38:16.423Z,73.82
2022-09-12T03:40:43.772Z,80.53
2022-09-12T03:43:10.920Z,81.15
2022-09-12T03:45:37.814Z,85.45
2022-09-12T03:48:06.162Z,107.18
2022-09-12T03:50:33.758Z,139.20
2022-09-12T03:53:00.391Z,112.30
2022-09-12T03:55:27.236Z,77.95
2022-09-12T03:57:54.932Z,95.18
2022-09-12T04:00:22.018Z,86.22
2022-09-12T04:02:48.601Z,93.95
2022-09-12T04:05:15.398Z,79.43
2022-09-12T04:07:41.985Z,83.97
2022-09-12T04:10:09.682Z,96.65
2022-09-12T04:12:36.533Z,90.45
2022-09-12T04:15:03.485Z,88.80
2022-09-12T04:17:30.013Z,83.75
2022-09-12T04:19:56.568Z,80.82
2022-09-12T04:22:23.377Z,101.30
2022-09-12T04:24:49.938Z,91.22
2022-09-12T04:27:16.487Z,89.72
2022-09-12T04:29:43.591Z,69.25
2022-09-12T04:32:10.197Z,98.85
2022-09-12T04:34:37.133Z,71.38
2022-09-12T04:37:03.848Z,82.85
2022-09-12T04:39:30.510Z,91.68
2022-09-12T04:41:57.115Z,77.53
2022-09-12T04:44:23.718Z,66.38
2022-09-12T04:46:50.305Z,73.00
2022-09-12T04:49:17.459Z,63.78
2022-09-12T04:51:44.406Z,58.30
2022-09-12T04:54:18.733Z,87.30
2022-09-12T04:56:48.878Z,88.47
2022-09-12T04:59:17.857Z,63.17
2022-09-12T05:01:44.727Z,74.53
2022-09-12T05:04:13.138Z,62.17
2022-09-12T05:06:41.422Z,68.03
2022-09-12T05:09:11.787Z,67.32
2022-09-12T05:14:29.748Z,63.78
2022-09-12T05:16:59.958Z,67.72
2022-09-12T05:19:28.239Z,71.50
2022-09-12T05:21:54.798Z,72.78
2022-09-12T05:24:21.552Z,57.92
2022-09-12T05:26:48.188Z,67.25
2022-09-12T05:29:14.869Z,54.50
2022-09-12T05:31:41.819Z,60.45
2022-09-12T05:34:09.166Z,58.95
2022-09-12T05:36:37.117Z,56.92
2022-09-12T05:39:04.576Z,50.17
2022-09-12T05:41:33.823Z,52.17
2022-09-12T05:44:04.586Z,40.88
2022-09-12T05:46:37.678Z,39.35
2022-09-12T05:49:10.269Z,36.40
2022-09-12T05:51:40.472Z,28.17
2022-09-12T05:54:11.915Z,33.35
2022-09-12T05:56:42.003Z,31.33
2022-09-12T05:59:14.411Z,26.20
2022-09-12T06:01:41.669Z,24.55
2022-09-12T06:04:08.870Z,25.25
2022-09-12T06:06:41.470Z,24.50
2022-09-12T06:09:09.436Z,21.67
2022-09-12T06:11:40.197Z,22.00
2022-09-12T06:14:07.903Z,21.10
2022-09-12T06:16:35.260Z,24.38
2022-09-12T06:19:07.005Z,24.98
2022-09-12T06:21:37.748Z,22.13
2022-09-12T06:24:04.614Z,26.95
2022-09-12T06:26:31.225Z,20.55
2022-09-12T06:29:00.717Z,20.73
2022-09-12T06:31:31.610Z,18.20
2022-09-12T06:34:02.617Z,22.02
2022-09-12T06:36:32.839Z,22.20
2022-09-12T06:39:07.662Z,19.52
2022-09-12T06:41:34.448Z,22.27
2022-09-12T06:44:01.822Z,22.67
2022-09-12T06:46:29.001Z,22.30
2022-09-12T06:49:00.506Z,19.73
2022-09-12T06:51:28.575Z,21.52
2022-09-12T06:53:57.086Z,17.88
2022-09-12T06:56:28.711Z,20.02
2022-09-12T06:58:59.522Z,16.40
2022-09-12T07:01:31.712Z,18.38
2022-09-12T07:04:02.184Z,20.77
2022-09-12T07:06:35.123Z,21.05
2022-09-12T07:09:04.612Z,24.95
2022-09-12T07:11:34.338Z,20.48
2022-09-12T07:14:03.432Z,18.00
2022-09-12T07:16:30.697Z,15.25
2022-09-12T07:19:02.594Z,18.58
2022-09-12T07:21:30.311Z,20.25
2022-09-12T07:24:00.230Z,17.08
2022-09-12T07:26:29.562Z,16.13
2022-09-12T07:29:18.601Z,17.75
2022-09-12T07:31:45.623Z,17.77
2022-09-12T07:34:12.268Z,18.75
2022-09-12T07:36:39.138Z,18.40
2022-09-12T07:39:05.957Z,21.40
2022-09-12T07:41:33.903Z,19.15
2022-09-12T07:44:02.600Z,19.05
2022-09-12T07:46:31.561Z,17.13
2022-09-12T07:49:00.282Z,20.88
2022-09-12T07:51:29.572Z,21.98
2022-09-12T07:53:56.796Z,19.30
2022-09-12T07:56:29.880Z,19.67
2022-09-12T07:58:58.681Z,20.00
2022-09-12T08:01:25.386Z,17.20
2022-09-12T08:04:00.171Z,16.23
2022-09-12T08:06:30.239Z,17.50
2022-09-12T08:08:59.036Z,20.23
2022-09-12T08:11:28.653Z,18.05
2022-09-12T08:13:57.724Z,18.00
2022-09-12T08:16:31.101Z,18.80
2022-09-12T08:18:59.837Z,19.17
2022-09-12T08:21:29.765Z,18.90
2022-09-12T08:24:05.811Z,17.13
2022-09-12T08:26:34.614Z,18.55
2022-09-12T08:29:01.758Z,18.95
2022-09-12T08:31:28.606Z,13.65
2022-09-12T08:33:58.376Z,13.85
2022-09-12T08:36:28.076Z,16.17
2022-09-12T08:38:59.892Z,20.38
2022-09-12T08:41:38.540Z,13.52
2022-09-12T08:44:41.869Z,14.35
2022-09-12T08:47:26.694Z,18.05
2022-09-12T08:50:09.409Z,14.40
2022-09-12T08:53:04.346Z,15.55
2022-09-12T08:55:53.709Z,13.77
2022-09-12T08:58:23.561Z,15.30
2022-09-12T09:01:29.989Z,20.15
2022-09-12T09:04:21.721Z,16.17
2022-09-12T09:07:20.548Z,14.13
2022-09-12T09:10:07.884Z,14.43
2022-09-12T09:13:09.517Z,11.88
2022-09-12T09:16:07.789Z,11.48
2022-09-12T09:18:35.946Z,13.38
2022-09-12T09:21:15.726Z,13.20
2022-09-12T09:23:48.246Z,13.10
2022-09-12T09:26:35.995Z,11.90
2022-09-12T09:29:17.780Z,19.92
2022-09-12T09:31:49.542Z,13.05
2022-09-12T09:34:22.436Z,11.75
2022-09-12T09:37:07.092Z,10.80
2022-09-12T09:39:49.318Z,10.00
2022-09-12T09:42:43.977Z,10.63
2022-09-12T09:45:19.336Z,23.90
2022-09-12T09:47:53.125Z,11.18
2022-09-12T09:50:20.042Z,10.25
2022-09-12T09:52:47.470Z,9.98
2022-09-12T09:55:20.933Z,12.65
2022-09-12T09:57:47.658Z,9.18
2022-09-12T10:00:27.099Z,10.52
2022-09-12T10:03:13.161Z,7.72
2022-09-12T10:06:06.925Z,7.90
2022-09-12T10:08:37.074Z,7.43
2022-09-12T10:11:18.533Z,10.18
2022-09-12T10:13:54.493Z,9.02
2022-09-12T10:16:24.841Z,5.75
2022-09-12T10:18:53.001Z,5.35
2022-09-12T10:21:25.919Z,8.18
2022-09-12T10:24:03.888Z,7.13
2022-09-12T10:26:40.338Z,4.43
2022-09-12T10:29:20.222Z,4.68
2022-09-12T10:31:59.944Z,4.00
2022-09-12T10:34:35.018Z,6.72
2022-09-12T10:37:30.977Z,4.55
2022-09-12T10:40:00.155Z,7.00
2022-09-12T10:42:46.158Z,3.03
2022-09-12T10:45:37.364Z,3.78
2022-09-12T10:48:31.955Z,3.80
2022-09-12T10:51:00.808Z,2.38
2022-09-12T10:53:34.575Z,4.60
2022-09-12T10:56:18.931Z,2.55
2022-09-12T10:59:20.507Z,3.50
2022-09-12T11:02:01.822Z,4.13
2022-09-12T11:04:58.909Z,1.80
2022-09-12T11:07:50.561Z,2.22
2022-09-12T11:10:45.400Z,1.65
2022-09-12T11:16:11.358Z,2.42
2022-09-12T11:19:19.654Z,2.10
2022-09-12T11:22:12.225Z,2.53
2022-09-12T11:25:12.084Z,3.08
2022-09-12T11:28:00.564Z,3.20
2022-09-12T11:30:37.883Z,2.42
2022-09-12T11:33:43.986Z,3.80
2022-09-12T11:36:48.977Z,2.65
2022-09-12T11:39:21.896Z,2.28
2022-09-12T11:42:00.474Z,1.83
2022-09-12T11:44:41.659Z,2.53
2022-09-12T11:47:13.475Z,2.10
2022-09-12T11:49:51.411Z,1.67
2022-09-12T11:52:24.223Z,2.85
2022-09-12T11:54:53.946Z,2.00
2022-09-12T11:57:31.071Z,1.83
2022-09-12T12:00:18.765Z,4.70
2022-09-12T12:03:06.608Z,3.25
2022-09-12T12:06:05.781Z,3.65
2022-09-12T12:08:40.176Z,3.88
2022-09-12T12:11:08.636Z,3.50
2022-09-12T12:13:52.638Z,2.97
2022-09-12T12:16:26.412Z,3.25
2022-09-12T12:19:01.707Z,3.13
2022-09-12T12:21:37.663Z,2.83
2022-09-12T12:24:15.367Z,2.00
2022-09-12T12:26:53.964Z,5.70
2022-09-12T12:29:20.474Z,3.15
2022-09-12T12:31:59.391Z,3.10
2022-09-12T12:34:40.648Z,2.20
2022-09-12T12:37:19.540Z,3.35
2022-09-12T12:39:50.149Z,2.00
2022-09-12T12:42:35.065Z,2.33
2022-09-12T12:45:17.760Z,1.88
2022-09-12T12:47:49.894Z,3.75
2022-09-12T12:50:16.444Z,3.53
2022-09-12T12:53:00.972Z,1.75
2022-09-12T12:55:43.345Z,2.80
2022-09-12T12:58:28.841Z,1.45
2022-09-12T13:01:15.879Z,6.43
2022-09-12T13:04:12.786Z,2.60
2022-09-12T13:06:57.202Z,3.75
2022-09-12T13:12:25.403Z,2.60
2022-09-12T13:15:01.997Z,2.05
2022-09-12T13:17:44.226Z,2.03
2022-09-12T13:20:29.723Z,1.63
2022-09-12T13:22:57.920Z,2.53
2022-09-12T13:25:35.704Z,1.83
2022-09-12T13:28:11.521Z,2.47
2022-09-12T13:31:03.811Z,1.88
2022-09-12T13:34:03.822Z,1.63
2022-09-12T13:36:33.448Z,1.63
2022-09-12T13:39:20.821Z,5.07
2022-09-12T13:42:21.722Z,3.25
2022-09-12T13:45:22.829Z,2.58
2022-09-12T13:47:58.820Z,2.50
2022-09-12T13:50:36.981Z,1.63
2022-09-12T13:53:27.598Z,1.95
2022-09-12T13:56:00.033Z,2.10
2022-09-12T13:58:33.219Z,3.17
2022-09-12T14:01:15.745Z,1.80
2022-09-12T14:04:08.627Z,2.55
2022-09-12T14:06:49.578Z,3.20
2022-09-12T14:09:26.859Z,1.92
2022-09-12T14:11:53.829Z,1.88
2022-09-12T14:14:36.475Z,1.80
2022-09-12T14:17:33.040Z,1.75
2022-09-12T14:20:14.020Z,5.13
2022-09-12T14:22:41.387Z,2.63
2022-09-12T14:25:24.125Z,3.53
2022-09-12T14:27:54.722Z,3.33
2022-09-12T14:30:33.144Z,2.00
2022-09-12T14:33:11.826Z,2.72
2022-09-12T14:35:43.597Z,2.47
2022-09-12T14:38:16.453Z,3.10
2022-09-12T14:40:48.529Z,2.30
2022-09-12T14:43:32.667Z,1.90
2022-09-12T14:46:08.278Z,2.10
2022-09-12T14:48:42.933Z,2.60
2022-09-12T14:51:28.194Z,2.20
2022-09-12T14:53:54.944Z,1.73
2022-09-12T14:56:36.599Z,3.10
2022-09-12T14:59:36.168Z,2.22
2022-09-12T15:02:26.134Z,5.45
2022-09-12T15:05:27.353Z,2.20
2022-09-12T15:08:02.546Z,4.25
2022-09-12T15:10:34.478Z,4.15
2022-09-12T15:13:10.001Z,2.63
2022-09-12T15:15:38.428Z,2.83
2022-09-12T15:18:06.708Z,2.70
2022-09-12T15:20:37.385Z,2.78
2022-09-12T15:23:05.128Z,4.05
2022-09-12T15:25:32.223Z,6.00
2022-09-12T15:27:58.956Z,3.47
2022-09-12T15:30:25.519Z,2.58
2022-09-12T15:32:52.097Z,2.30
2022-09-12T15:35:23.021Z,2.38
2022-09-12T15:37:50.510Z,6.00
2022-09-12T15:40:17.769Z,2.60
2022-09-12T15:42:44.508Z,5.05
2022-09-12T15:45:27.747Z,2.53
2022-09-12T15:47:55.794Z,2.72
2022-09-12T15:50:23.038Z,2.80
2022-09-12T15:52:49.826Z,3.15
2022-09-12T15:55:28.127Z,4.35
2022-09-12T15:57:54.938Z,2.95
2022-09-12T16:00:22.681Z,3.75
2022-09-12T16:02:52.520Z,4.32
2022-09-12T16:05:25.810Z,4.93
2022-09-12T16:07:54.631Z,4.30
2022-09-12T16:10:25.728Z,3.47
2022-09-12T16:12:52.794Z,2.83
2022-09-12T16:15:23.031Z,2.97
2022-09-12T16:17:50.372Z,2.72
2022-09-12T16:20:18.716Z,3.63
2022-09-12T16:22:45.442Z,8.18
2022-09-12T16:25:12.155Z,3.33
2022-09-12T16:27:39.039Z,7.15
2022-09-12T16:30:07.809Z,2.72
2022-09-12T16:32:34.448Z,4.45
2022-09-12T16:35:01.873Z,3.15
2022-09-12T16:37:28.550Z,6.70
2022-09-12T16:39:55.600Z,6.13
2022-09-12T16:42:22.904Z,3.25
2022-09-12T16:44:49.535Z,3.15
2022-09-12T16:47:16.232Z,5.50
2022-09-12T16:49:42.834Z,3.22
2022-09-12T16:52:10.134Z,2.90
2022-09-12T16:54:36.973Z,4.45
2022-09-12T16:57:05.216Z,5.10
2022-09-12T16:59:32.202Z,2.90
2022-09-12T17:01:58.869Z,4.90
2022-09-12T17:04:25.612Z,3.65
2022-09-12T17:06:52.236Z,3.28
2022-09-12T17:09:19.015Z,7.28
2022-09-12T17:11:47.831Z,4.00
2022-09-12T17:14:14.445Z,3.10
2022-09-12T17:16:50.763Z,4.00
2022-09-12T17:19:26.510Z,4.25
2022-09-12T17:21:53.931Z,4.28
2022-09-12T17:24:21.056Z,3.05
2022-09-12T17:26:47.740Z,7.63
2022-09-12T17:29:15.664Z,3.03
2022-09-12T17:31:43.987Z,4.82
2022-09-12T17:34:14.321Z,4.32
2022-09-12T17:36:45.513Z,5.95
2022-09-12T17:39:13.864Z,5.20
2022-09-12T17:41:42.579Z,6.68
2022-09-12T17:44:12.452Z,5.15
2022-09-12T17:46:39.624Z,4.15
2022-09-12T17:49:11.863Z,3.80
2022-09-12T17:51:39.697Z,4.88
2022-09-12T17:54:11.748Z,5.05
2022-09-12T17:56:39.352Z,7.15
2022-09-12T17:59:08.199Z,5.97
2022-09-12T18:01:53.329Z,3.47
2022-09-12T18:04:20.284Z,3.47
2022-09-12T18:06:50.099Z,7.35
2022-09-12T18:09:23.265Z,4.15
2022-09-12T18:11:50.942Z,5.72
2022-09-12T18:14:18.316Z,5.32
2022-09-12T18:16:46.456Z,3.72
2022-09-12T18:19:13.836Z,6.70
2022-09-12T18:21:40.444Z,7.78
2022-09-12T18:24:07.389Z,4.55
2022-09-12T18:26:34.514Z,4.53
2022-09-12T18:29:01.119Z,5.28
2022-09-12T18:31:30.209Z,8.50
2022-09-12T18:33:59.693Z,3.25
2022-09-12T18:36:27.191Z,8.18
2022-09-12T18:38:53.898Z,5.75
2022-09-12T18:41:22.877Z,3.72
2022-09-12T18:43:54.395Z,6.70
2022-09-12T18:46:21.397Z,5.95
2022-09-12T18:48:48.274Z,4.07
2022-09-12T18:51:23.054Z,7.25
2022-09-12T18:53:55.974Z,7.93
2022-09-12T18:56:25.233Z,4.75
2022-09-12T18:58:57.467Z,5.25
2022-09-12T19:01:33.369Z,5.45
2022-09-12T19:04:06.070Z,6.07
2022-09-12T19:06:42.687Z,4.80
2022-09-12T19:09:11.128Z,7.88
2022-09-12T19:11:40.737Z,4.72
2022-09-12T19:14:07.851Z,7.40
2022-09-12T19:16:34.902Z,6.63
2022-09-12T19:19:02.565Z,26.65
2022-09-12T19:21:31.264Z,7.30
2022-09-12T19:24:02.014Z,7.93
2022-09-12T19:26:29.811Z,4.72
2022-09-12T19:28:56.814Z,7.65
2022-09-12T19:31:24.374Z,4.93
2022-09-12T19:33:52.440Z,5.93
2022-09-12T19:36:43.825Z,8.07
2022-09-12T19:39:09.121Z,9.40
2022-09-12T19:41:36.422Z,10.07
2022-09-12T19:44:04.543Z,6.60
2022-09-12T19:46:31.473Z,5.78
2022-09-12T19:48:58.184Z,8.23
2022-09-12T19:51:25.223Z,5.60
2022-09-12T19:53:52.170Z,7.22
2022-09-12T19:56:19.260Z,5.40
2022-09-12T19:58:49.950Z,5.95
2022-09-12T20:01:24.866Z,6.15
2022-09-12T20:03:53.698Z,6.20
2022-09-12T20:06:20.623Z,6.38
2022-09-12T20:08:47.270Z,9.77
2022-09-12T20:11:18.038Z,6.78
2022-09-12T20:13:46.036Z,6.68
2022-09-12T20:16:22.061Z,9.85
2022-09-12T20:18:55.099Z,6.30
2022-09-12T20:21:30.869Z,4.65
2022-09-12T20:24:11.185Z,6.93
2022-09-12T20:26:38.208Z,7.43
2022-09-12T20:29:06.321Z,6.22
2022-09-12T20:31:34.376Z,8.48
2022-09-12T20:34:01.029Z,6.43
2022-09-12T20:36:28.169Z,6.20
2022-09-12T20:39:01.087Z,10.23
2022-09-12T20:41:30.272Z,4.85
2022-09-12T20:43:57.523Z,7.05
2022-09-12T20:46:26.363Z,5.65
2022-09-12T20:48:53.109Z,6.45
2022-09-12T20:51:21.629Z,9.45
2022-09-12T20:53:52.384Z,5.97
2022-09-12T20:56:18.974Z,9.57
2022-09-12T20:58:45.580Z,6.90
2022-09-12T21:01:15.698Z,15.00
2022-09-12T21:03:44.663Z,9.20
2022-09-12T21:06:14.170Z,7.18
2022-09-12T21:08:40.980Z,7.18
2022-09-12T21:11:07.641Z,5.40
2022-09-12T21:13:34.638Z,7.13
2022-09-12T21:16:14.159Z,10.00
2022-09-12T21:18:41.613Z,9.82
2022-09-12T21:21:14.207Z,10.07
2022-09-12T21:23:41.262Z,7.00
2022-09-12T21:26:08.438Z,10.85
2022-09-12T21:28:35.839Z,5.70
2022-09-12T21:31:02.756Z,8.50
2022-09-12T21:33:29.401Z,4.90
2022-09-12T21:36:01.750Z,5.95
2022-09-12T21:38:28.361Z,6.25
2022-09-12T21:41:12.695Z,8.75
2022-09-12T21:43:40.364Z,8.35
2022-09-12T21:46:08.342Z,9.32
2022-09-12T21:48:35.897Z,8.35
2022-09-12T21:51:03.740Z,10.65
2022-09-12T21:53:31.068Z,11.13
2022-09-12T21:56:07.059Z,8.50
2022-09-12T21:58:34.570Z,8.13
2022-09-12T22:01:01.360Z,6.68
2022-09-12T22:03:29.507Z,8.77
2022-09-12T22:06:01.974Z,7.32
2022-09-12T22:08:30.597Z,8.80
2022-09-12T22:11:04.439Z,8.13
2022-09-12T22:13:32.190Z,9.25
2022-09-12T22:16:02.728Z,8.25
2022-09-12T22:18:31.791Z,9.38
2022-09-12T22:21:07.605Z,6.68
2022-09-12T22:23:52.926Z,10.57
2022-09-12T22:26:20.386Z,9.60
2022-09-12T22:28:47.589Z,6.85
2022-09-12T22:31:15.431Z,8.95
2022-09-12T22:33:42.449Z,12.05
2022-09-12T22:36:09.933Z,8.07
2022-09-12T22:38:36.719Z,7.75
2022-09-12T22:41:05.921Z,10.90
2022-09-12T22:43:34.932Z,11.00
2022-09-12T22:46:05.091Z,9.85
2022-09-12T22:48:31.835Z,5.95
2022-09-12T22:50:58.414Z,8.77
2022-09-12T22:53:25.001Z,6.70
2022-09-12T22:55:51.612Z,9.65
2022-09-12T22:58:18.176Z,10.65
2022-09-12T23:00:51.540Z,7.75
2022-09-12T23:03:19.582Z,10.55
2022-09-12T23:05:47.763Z,9.43
2022-09-12T23:08:19.253Z,7.75
2022-09-12T23:10:46.089Z,8.90
2022-09-12T23:13:12.963Z,9.32
2022-09-12T23:15:39.770Z,9.07
2022-09-12T23:18:06.455Z,9.60
2022-09-12T23:20:33.000Z,9.68
2022-09-12T23:22:59.557Z,11.43
2022-09-12T23:25:26.325Z,11.02
2022-09-12T23:27:53.918Z,9.70
2022-09-12T23:30:21.547Z,7.20
2022-09-12T23:32:49.287Z,8.52
2022-09-12T23:35:19.617Z,7.75
2022-09-12T23:37:47.221Z,9.45
2022-09-12T23:40:14.006Z,11.65
2022-09-12T23:42:40.724Z,7.95
2022-09-12T23:45:08.068Z,7.97
2022-09-12T23:47:34.695Z,10.82
2022-09-12T23:50:01.351Z,8.68
2022-09-12T23:52:28.378Z,11.77
2022-09-12T23:54:54.969Z,12.85
2022-09-12T23:57:21.570Z,7.68
2022-09-12T23:59:48.136Z,7.35
